Time;durP1;ratioP1;P1;durP2;ratioP2;P2;SDS_P1;SDS_P2;PMS_P1;PMS_P2;Temp;Humidity;BMP_temperature;BMP_pressure;BME280_temperature;BME280_humidity;BME280_pressure;Samples;Min_cycle;Max_cycle;Signal;HPM_P1;HPM_P2
2023/06/12 00:01:43;;;;;;;8.80;5.97;;;21.40;64.90;;;;;;5013376;28;20088;-79
2023/06/12 00:04:08;;;;;;;9.95;5.68;;;21.30;64.90;;;;;;5001004;28;20156;-80
2023/06/12 00:06:37;;;;;;;10.90;6.05;;;21.40;65.00;;;;;;5025807;28;20091;-79
2023/06/12 00:09:04;;;;;;;9.45;5.50;;;21.20;65.10;;;;;;4996975;28;20041;-79
2023/06/12 00:11:30;;;;;;;8.88;5.88;;;21.20;65.30;;;;;;4994166;28;20116;-79
2023/06/12 00:13:56;;;;;;;11.32;6.15;;;21.40;65.40;;;;;;5009769;28;20037;-79
2023/06/12 00:16:22;;;;;;;9.00;5.88;;;21.20;65.40;;;;;;4989088;28;20474;-79
2023/06/12 00:18:49;;;;;;;8.93;5.85;;;21.10;65.30;;;;;;4990655;28;20046;-79
2023/06/12 00:21:15;;;;;;;8.35;6.00;;;21.90;65.70;;;;;;5010941;28;20041;-79
2023/06/12 00:23:41;;;;;;;11.95;6.10;;;21.10;65.20;;;;;;4992912;28;20049;-80
2023/06/12 00:26:08;;;;;;;9.85;5.82;;;21.10;65.40;;;;;;5006514;28;20053;-79
2023/06/12 00:28:34;;;;;;;7.32;5.80;;;21.00;65.20;;;;;;5009220;28;20044;-79
2023/06/12 00:31:00;;;;;;;10.85;5.75;;;21.00;65.20;;;;;;5006237;28;20042;-80
2023/06/12 00:33:26;;;;;;;8.70;5.38;;;20.90;65.10;;;;;;5007310;28;20049;-80
2023/06/12 00:35:52;;;;;;;7.95;5.50;;;20.90;65.10;;;;;;5006190;28;20558;-80
2023/06/12 00:38:17;;;;;;;7.03;5.40;;;20.90;65.10;;;;;;5006993;28;20042;-80
2023/06/12 00:40:43;;;;;;;8.77;5.35;;;20.90;65.10;;;;;;5031226;28;20037;-80
2023/06/12 00:43:09;;;;;;;9.73;5.38;;;20.80;65.10;;;;;;4990081;28;20053;-80
2023/06/12 00:45:35;;;;;;;8.02;5.32;;;21.20;65.50;;;;;;5000453;28;20042;-80
2023/06/12 00:48:01;;;;;;;9.25;5.20;;;20.80;65.20;;;;;;5023443;28;20045;-79
2023/06/12 00:50:27;;;;;;;11.18;5.18;;;20.80;65.20;;;;;;5024753;28;20502;-79
2023/06/12 00:52:57;;;;;;;8.00;4.90;;;20.80;65.30;;;;;;5011205;28;20029;-79
2023/06/12 00:55:24;;;;;;;8.00;4.43;;;20.70;65.20;;;;;;5005057;28;20126;-79
2023/06/12 00:57:51;;;;;;;7.85;4.97;;;21.50;65.70;;;;;;5023791;28;20117;-77
2023/06/12 01:00:18;;;;;;;9.77;4.82;;;20.70;65.50;;;;;;4984932;28;20095;-79
2023/06/12 01:02:50;;;;;;;11.00;4.57;;;20.70;65.50;;;;;;5016559;28;20042;-79
2023/06/12 01:05:20;;;;;;;8.13;4.55;;;20.70;65.50;;;;;;4990629;28;20042;-79
2023/06/12 01:08:04;;;;;;;9.25;4.60;;;21.30;65.90;;;;;;4988034;28;20121;-79
2023/06/12 01:10:51;;;;;;;8.35;4.50;;;20.60;65.60;;;;;;5024492;28;20445;-79
2023/06/12 01:13:18;;;;;;;9.18;4.60;;;20.60;65.70;;;;;;5013136;28;20421;-78
2023/06/12 01:15:44;;;;;;;9.30;4.30;;;20.50;65.80;;;;;;4990771;28;20121;-79
2023/06/12 01:18:10;;;;;;;7.95;4.45;;;20.50;66.00;;;;;;5030134;28;20132;-78
2023/06/12 01:20:36;;;;;;;8.38;4.40;;;20.50;66.00;;;;;;5013137;28;20064;-79
2023/06/12 01:23:25;;;;;;;9.85;4.82;;;20.40;66.10;;;;;;5023753;28;20048;-78
2023/06/12 01:26:26;;;;;;;8.38;4.55;;;20.40;66.30;;;;;;4984685;28;20081;-78
2023/06/12 01:29:22;;;;;;;12.20;4.50;;;20.40;66.40;;;;;;4994849;28;20559;-79
2023/06/12 01:32:05;;;;;;;12.80;4.65;;;20.40;66.70;;;;;;5007258;28;20140;-77
2023/06/12 01:34:58;;;;;;;8.63;4.75;;;20.30;66.60;;;;;;5004052;28;20533;-79
2023/06/12 01:37:34;;;;;;;11.35;4.70;;;20.20;66.80;;;;;;5000594;28;20043;-79
2023/06/12 01:40:05;;;;;;;7.40;4.00;;;20.20;66.90;;;;;;4994845;28;20080;-79
2023/06/12 01:42:32;;;;;;;8.10;3.80;;;20.20;67.00;;;;;;5003734;28;20037;-78
2023/06/12 01:44:57;;;;;;;8.93;3.92;;;20.10;67.10;;;;;;5007308;28;20120;-79
2023/06/12 01:47:23;;;;;;;9.18;3.95;;;20.10;67.20;;;;;;5010884;28;20083;-78
2023/06/12 01:49:49;;;;;;;6.80;3.80;;;20.90;67.80;;;;;;5014226;28;20048;-78
2023/06/12 01:52:14;;;;;;;6.85;4.22;;;20.10;67.50;;;;;;5007309;28;20038;-79
2023/06/12 01:54:40;;;;;;;9.40;4.15;;;20.10;67.60;;;;;;5001127;28;20046;-79
2023/06/12 01:57:06;;;;;;;7.35;4.20;;;20.10;67.80;;;;;;5006425;28;20037;-78
2023/06/12 01:59:34;;;;;;;8.60;4.32;;;20.10;67.80;;;;;;5012466;28;20045;-77
2023/06/12 02:02:01;;;;;;;11.77;4.30;;;20.70;68.30;;;;;;5024819;28;20067;-78
2023/06/12 02:04:28;;;;;;;11.45;4.07;;;19.90;68.10;;;;;;5010785;28;20038;-77
2023/06/12 02:06:53;;;;;;;7.10;3.83;;;20.50;68.40;;;;;;5008972;28;20042;-78
2023/06/12 02:09:19;;;;;;;8.23;4.50;;;19.90;68.20;;;;;;5013425;28;20137;-78
2023/06/12 02:11:45;;;;;;;9.07;4.35;;;20.30;68.50;;;;;;5011430;28;20049;-78
2023/06/12 02:14:11;;;;;;;10.10;3.92;;;19.90;68.40;;;;;;4994301;28;20128;-78
2023/06/12 02:16:37;;;;;;;7.38;4.07;;;19.80;68.50;;;;;;5011979;28;20116;-80
2023/06/12 02:19:03;;;;;;;8.13;4.32;;;19.80;68.60;;;;;;5024470;28;20482;-78
2023/06/12 02:21:28;;;;;;;8.93;4.03;;;19.80;68.70;;;;;;5003450;28;20026;-78
2023/06/12 02:23:54;;;;;;;8.13;4.28;;;19.80;68.80;;;;;;5005481;28;20083;-78
2023/06/12 02:26:20;;;;;;;6.03;3.90;;;19.70;68.90;;;;;;5011636;28;20063;-78
2023/06/12 02:29:04;;;;;;;7.13;3.80;;;20.50;69.50;;;;;;5023712;28;20041;-78
2023/06/12 02:31:30;;;;;;;8.27;4.22;;;19.70;69.70;;;;;;5011630;28;20033;-78
2023/06/12 02:33:56;;;;;;;10.60;3.95;;;19.60;69.20;;;;;;5013369;28;20437;-78
2023/06/12 02:36:22;;;;;;;12.57;4.30;;;19.40;69.30;;;;;;5004101;28;20033;-78
2023/06/12 02:38:48;;;;;;;6.93;3.97;;;19.60;69.60;;;;;;5007680;28;20042;-78
2023/06/12 02:41:13;;;;;;;9.30;4.40;;;19.60;69.70;;;;;;4996802;28;20512;-77
2023/06/12 02:43:39;;;;;;;7.90;4.10;;;19.70;69.80;;;;;;5028504;28;20049;-78
2023/06/12 02:46:05;;;;;;;7.35;4.15;;;19.50;69.90;;;;;;5005899;28;20038;-78
2023/06/12 02:48:30;;;;;;;8.45;4.00;;;20.00;70.40;;;;;;5009692;28;20042;-78
2023/06/12 02:50:56;;;;;;;7.20;3.63;;;19.90;70.40;;;;;;4981938;28;20077;-78
2023/06/12 02:53:22;;;;;;;9.07;3.67;;;19.40;70.40;;;;;;5009660;28;20117;-78
2023/06/12 02:55:49;;;;;;;7.70;4.15;;;19.60;70.70;;;;;;5012646;28;20498;-78
2023/06/12 02:58:18;;;;;;;10.68;3.80;;;19.30;70.60;;;;;;5009695;28;20071;-78
2023/06/12 03:00:44;;;;;;;7.65;4.25;;;19.30;70.70;;;;;;5033813;28;20045;-79
2023/06/12 03:03:12;;;;;;;8.02;4.25;;;19.30;70.80;;;;;;5006717;28;20041;-79
2023/06/12 03:05:38;;;;;;;9.32;3.80;;;19.30;71.00;;;;;;4993573;28;20120;-78
2023/06/12 03:08:05;;;;;;;12.18;4.60;;;19.80;71.40;;;;;;5004599;28;20046;-79
2023/06/12 03:10:31;;;;;;;7.75;3.90;;;19.30;71.20;;;;;;4999652;28;20044;-78
2023/06/12 03:12:56;;;;;;;8.70;3.75;;;19.60;71.50;;;;;;5007380;28;20042;-78
2023/06/12 03:15:22;;;;;;;8.65;3.83;;;20.10;72.00;;;;;;5021681;28;20585;-78
2023/06/12 03:17:48;;;;;;;10.45;4.05;;;19.20;71.60;;;;;;4991089;28;20051;-78
2023/06/12 03:20:15;;;;;;;5.32;3.60;;;19.20;71.80;;;;;;5007875;28;20403;-78
2023/06/12 03:22:41;;;;;;;7.38;3.80;;;19.10;71.90;;;;;;4990366;28;20061;-78
2023/06/12 03:25:09;;;;;;;6.85;3.78;;;19.10;72.10;;;;;;5008590;28;20379;-78
2023/06/12 03:27:35;;;;;;;10.63;4.30;;;19.00;72.10;;;;;;5025513;28;20552;-77
2023/06/12 03:30:00;;;;;;;10.48;4.10;;;19.00;72.30;;;;;;5031974;28;20528;-78
2023/06/12 03:32:26;;;;;;;8.30;4.03;;;19.00;72.40;;;;;;5023065;28;20037;-79
2023/06/12 03:34:52;;;;;;;6.22;3.85;;;19.00;72.60;;;;;;4983939;28;20050;-78
2023/06/12 03:37:19;;;;;;;6.93;4.18;;;19.60;73.00;;;;;;4992910;28;20069;-77
2023/06/12 03:39:45;;;;;;;9.38;3.85;;;18.90;72.80;;;;;;4993809;28;20042;-78
2023/06/12 03:42:10;;;;;;;7.07;3.35;;;19.60;73.40;;;;;;5033357;28;20033;-79
2023/06/12 03:44:36;;;;;;;6.75;3.83;;;18.90;73.00;;;;;;5010861;28;20071;-78
2023/06/12 03:47:02;;;;;;;7.30;4.00;;;19.80;73.60;;;;;;4998400;28;20119;-78
2023/06/12 03:49:28;;;;;;;7.72;3.70;;;18.90;73.30;;;;;;4993458;28;20046;-78
2023/06/12 03:51:54;;;;;;;8.13;4.38;;;19.10;73.50;;;;;;5011939;28;20045;-78
2023/06/12 03:54:20;;;;;;;10.65;4.05;;;18.80;73.50;;;;;;5015411;28;20042;-78
2023/06/12 03:56:46;;;;;;;11.07;3.88;;;19.60;74.00;;;;;;5030481;28;20521;-78
2023/06/12 03:59:11;;;;;;;8.13;4.00;;;19.00;73.80;;;;;;5027029;28;20087;-78
2023/06/12 04:01:38;;;;;;;8.45;4.35;;;19.10;74.10;;;;;;5024985;28;20042;-75
2023/06/12 04:04:10;;;;;;;8.63;3.85;;;19.00;74.20;;;;;;5009993;28;20048;-81
2023/06/12 04:06:40;;;;;;;7.28;3.80;;;18.80;74.20;;;;;;4993955;28;20033;-82
2023/06/12 04:09:09;;;;;;;7.72;3.78;;;18.80;74.20;;;;;;5000403;28;20033;-81
2023/06/12 04:11:39;;;;;;;11.50;4.75;;;18.80;74.50;;;;;;5012813;28;20125;-82
2023/06/12 04:14:08;;;;;;;9.45;3.95;;;18.80;74.50;;;;;;5025251;28;20472;-82
2023/06/12 04:16:40;;;;;;;9.45;3.80;;;18.70;74.60;;;;;;5023783;28;20402;-82
2023/06/12 04:19:08;;;;;;;10.35;4.20;;;18.70;74.80;;;;;;4952820;28;20040;-82
2023/06/12 04:21:54;;;;;;;7.60;4.25;;;18.70;75.00;;;;;;5003551;28;20095;-82
2023/06/12 04:24:33;;;;;;;12.85;4.40;;;18.70;75.20;;;;;;4989795;28;20037;-82
2023/06/12 04:27:09;;;;;;;6.32;3.83;;;18.70;75.50;;;;;;5002930;28;20038;-81
2023/06/12 04:29:43;;;;;;;8.80;3.83;;;18.70;75.50;;;;;;5010960;28;20034;-80
2023/06/12 04:32:17;;;;;;;10.48;4.50;;;18.60;75.60;;;;;;4986599;28;20038;-82
2023/06/12 04:35:27;;;;;;;6.50;3.88;;;18.70;75.90;;;;;;5007219;28;20037;-79
2023/06/12 04:37:58;;;;;;;9.07;4.50;;;18.70;76.50;;;;;;5004220;28;20037;-79
2023/06/12 04:40:24;;;;;;;7.38;3.88;;;18.70;76.00;;;;;;4992141;28;20043;-80
2023/06/12 04:42:56;;;;;;;8.10;3.92;;;18.70;76.10;;;;;;4996006;28;20038;-80
2023/06/12 04:45:22;;;;;;;8.75;4.70;;;18.80;76.30;;;;;;4993933;28;20041;-80
2023/06/12 04:47:49;;;;;;;8.18;4.25;;;18.70;76.50;;;;;;5021808;28;20120;-81
2023/06/12 04:50:16;;;;;;;8.30;4.40;;;18.70;76.70;;;;;;4999161;28;20072;-81
2023/06/12 04:52:42;;;;;;;8.02;3.90;;;18.70;77.00;;;;;;4993965;28;20052;-78
2023/06/12 04:55:08;;;;;;;9.00;4.18;;;18.70;77.20;;;;;;4997689;28;20045;-80
2023/06/12 04:57:36;;;;;;;12.93;4.80;;;18.70;77.30;;;;;;5011060;28;20504;-80
2023/06/12 05:00:05;;;;;;;8.07;4.07;;;18.80;77.60;;;;;;5011292;28;20243;-80
2023/06/12 05:02:35;;;;;;;7.45;4.40;;;18.70;77.70;;;;;;5001282;28;20482;-80
2023/06/12 05:05:01;;;;;;;10.23;4.57;;;18.70;77.90;;;;;;5014071;28;20440;-80
2023/06/12 05:07:27;;;;;;;10.85;4.63;;;18.70;78.10;;;;;;5002628;28;20124;-78
2023/06/12 05:09:53;;;;;;;9.15;4.32;;;18.70;78.20;;;;;;5001187;28;20041;-80
2023/06/12 05:12:19;;;;;;;10.38;4.50;;;18.70;78.30;;;;;;4993059;28;20096;-79
2023/06/12 05:14:45;;;;;;;7.47;3.85;;;18.80;78.40;;;;;;4990540;28;20532;-79
2023/06/12 05:17:11;;;;;;;6.78;4.20;;;18.90;78.60;;;;;;5011954;28;20584;-79
2023/06/12 05:19:38;;;;;;;8.98;4.30;;;18.90;78.70;;;;;;4997458;28;20069;-79
2023/06/12 05:22:04;;;;;;;11.45;5.13;;;18.80;78.70;;;;;;5025224;28;20041;-79
2023/06/12 05:24:30;;;;;;;9.75;4.28;;;18.80;78.80;;;;;;5004907;28;20505;-79
2023/06/12 05:26:55;;;;;;;11.15;4.60;;;18.80;79.00;;;;;;5019071;28;20034;-79
2023/06/12 05:29:21;;;;;;;7.07;4.30;;;18.80;79.10;;;;;;5006539;28;20034;-79
2023/06/12 05:31:47;;;;;;;11.75;4.35;;;18.80;79.20;;;;;;5010799;28;20809;-79
2023/06/12 05:34:12;;;;;;;9.90;4.38;;;18.90;79.40;;;;;;5010223;28;20155;-80
2023/06/12 05:36:38;;;;;;;10.55;4.80;;;18.80;79.40;;;;;;5023670;28;20049;-80
2023/06/12 05:39:04;;;;;;;9.48;4.90;;;19.60;79.90;;;;;;5008634;28;20033;-80
2023/06/12 05:41:30;;;;;;;7.28;4.25;;;19.70;80.10;;;;;;4990616;28;20053;-79
2023/06/12 05:43:56;;;;;;;13.43;4.30;;;18.80;79.70;;;;;;5028629;28;20149;-79
2023/06/12 05:46:21;;;;;;;7.72;4.53;;;18.90;80.00;;;;;;5004385;28;20417;-80
2023/06/12 05:48:48;;;;;;;9.25;4.70;;;19.00;80.10;;;;;;4994682;28;20124;-80
2023/06/12 05:51:14;;;;;;;12.52;4.40;;;18.90;80.10;;;;;;5021127;28;20033;-81
2023/06/12 05:53:44;;;;;;;8.20;4.82;;;19.00;80.10;;;;;;5014022;28;20040;-79
2023/06/12 05:56:12;;;;;;;8.43;4.50;;;19.10;80.30;;;;;;4981225;28;20104;-80
2023/06/12 05:58:45;;;;;;;10.77;4.00;;;19.10;80.50;;;;;;5004056;28;20057;-80
2023/06/12 06:01:16;;;;;;;6.40;4.32;;;19.20;80.60;;;;;;5000132;28;20065;-80
2023/06/12 06:03:45;;;;;;;7.43;4.43;;;19.10;80.80;;;;;;5012013;28;20387;-80
2023/06/12 06:06:17;;;;;;;11.00;4.40;;;19.20;81.10;;;;;;5024051;28;20048;-80
2023/06/12 06:08:43;;;;;;;8.35;4.35;;;19.90;81.50;;;;;;5001269;28;20049;-80
2023/06/12 06:11:09;;;;;;;12.32;4.88;;;20.00;81.30;;;;;;5030596;28;20044;-80
2023/06/12 06:13:37;;;;;;;8.77;5.03;;;19.40;80.80;;;;;;5011057;28;20034;-80
2023/06/12 06:16:04;;;;;;;7.07;4.55;;;19.50;80.90;;;;;;4994754;28;20033;-80
2023/06/12 06:18:30;;;;;;;9.88;4.30;;;19.50;81.10;;;;;;5017725;28;20034;-79
2023/06/12 06:20:56;;;;;;;11.63;5.20;;;19.60;81.20;;;;;;5027542;28;20040;-79
2023/06/12 06:23:22;;;;;;;12.90;4.70;;;19.60;80.90;;;;;;5013115;28;20037;-80
2023/06/12 06:25:48;;;;;;;7.85;4.53;;;19.70;80.80;;;;;;5027276;28;20068;-80
2023/06/12 06:28:14;;;;;;;9.45;4.78;;;20.30;80.80;;;;;;5019746;28;20033;-80
2023/06/12 06:30:40;;;;;;;7.93;4.63;;;19.80;80.40;;;;;;5003018;28;20112;-80
2023/06/12 06:33:06;;;;;;;8.38;4.80;;;20.10;80.50;;;;;;5023179;28;20033;-80
2023/06/12 06:35:31;;;;;;;12.35;4.57;;;19.80;79.90;;;;;;5006470;28;20165;-80
2023/06/12 06:37:58;;;;;;;7.85;4.63;;;20.00;80.00;;;;;;5022268;28;20059;-80
2023/06/12 06:40:25;;;;;;;9.25;4.88;;;19.80;79.80;;;;;;5006443;28;20405;-80
2023/06/12 06:42:52;;;;;;;9.35;4.28;;;20.20;80.20;;;;;;5025069;28;20058;-80
2023/06/12 06:45:19;;;;;;;10.68;5.28;;;19.80;80.00;;;;;;5004217;28;20042;-79
2023/06/12 06:47:45;;;;;;;7.82;5.05;;;20.50;80.50;;;;;;5008595;28;20047;-80
2023/06/12 06:50:11;;;;;;;8.23;4.78;;;19.90;80.20;;;;;;5006671;28;20072;-79
2023/06/12 06:52:36;;;;;;;10.85;4.55;;;20.00;80.30;;;;;;4989410;28;20038;-79
2023/06/12 06:55:02;;;;;;;9.73;4.65;;;20.00;80.10;;;;;;5022408;28;20045;-79
2023/06/12 06:57:28;;;;;;;10.68;4.97;;;20.00;80.30;;;;;;5015391;28;20049;-79
2023/06/12 06:59:55;;;;;;;9.40;4.55;;;20.00;80.10;;;;;;4982443;28;20044;-79
2023/06/12 07:02:21;;;;;;;9.82;5.32;;;20.10;79.80;;;;;;5013739;28;20038;-79
2023/06/12 07:04:48;;;;;;;10.15;5.15;;;20.20;79.60;;;;;;5015851;28;20060;-79
2023/06/12 07:07:14;;;;;;;10.73;5.07;;;20.20;79.50;;;;;;5021702;28;20128;-81
2023/06/12 07:09:39;;;;;;;16.08;5.25;;;20.20;79.60;;;;;;4983605;28;20208;-80
2023/06/12 07:12:05;;;;;;;11.65;5.35;;;20.20;79.60;;;;;;5001936;28;20042;-79
2023/06/12 07:14:31;;;;;;;8.50;4.97;;;20.30;79.60;;;;;;4983423;28;20121;-80
2023/06/12 07:16:57;;;;;;;9.50;5.20;;;20.20;79.50;;;;;;5001546;28;20132;-79
2023/06/12 07:19:23;;;;;;;8.25;4.80;;;20.40;79.80;;;;;;4979829;28;20069;-81
2023/06/12 07:21:49;;;;;;;7.38;4.63;;;20.50;79.70;;;;;;4974050;28;20066;-79
2023/06/12 07:24:17;;;;;;;9.07;5.25;;;20.50;79.70;;;;;;4992450;28;20210;-80
2023/06/12 07:26:44;;;;;;;8.10;4.60;;;20.60;79.50;;;;;;4984384;28;20329;-79
2023/06/12 07:29:13;;;;;;;14.15;5.38;;;20.70;79.10;;;;;;4978242;28;20045;-80
2023/06/12 07:31:38;;;;;;;8.18;4.93;;;20.80;78.80;;;;;;5010765;28;20449;-79
2023/06/12 07:34:04;;;;;;;11.50;4.78;;;20.80;78.40;;;;;;5006609;28;20057;-79
2023/06/12 07:36:35;;;;;;;11.00;4.90;;;21.00;78.40;;;;;;4978756;28;20499;-79
2023/06/12 07:39:01;;;;;;;14.25;4.75;;;20.90;77.80;;;;;;5014566;28;20140;-80
2023/06/12 07:41:26;;;;;;;9.18;5.20;;;21.10;77.60;;;;;;5017966;28;20037;-79
2023/06/12 07:43:53;;;;;;;10.02;4.70;;;20.90;77.40;;;;;;5010035;28;20056;-80
2023/06/12 07:46:19;;;;;;;9.80;4.70;;;21.10;77.20;;;;;;4998718;28;20042;-79
2023/06/12 07:48:44;;;;;;;11.68;4.78;;;21.40;77.50;;;;;;5019749;28;20042;-79
2023/06/12 07:51:10;;;;;;;13.52;4.70;;;21.20;77.00;;;;;;5020344;28;20498;-79
2023/06/12 07:53:36;;;;;;;7.97;4.72;;;21.30;76.50;;;;;;4978601;28;20391;-79
2023/06/12 07:56:02;;;;;;;8.02;4.50;;;21.40;76.30;;;;;;4994256;28;20054;-80
2023/06/12 07:58:30;;;;;;;7.25;5.15;;;21.50;76.10;;;;;;4982826;28;20062;-79
2023/06/12 08:00:56;;;;;;;9.85;5.18;;;21.90;76.40;;;;;;5018185;28;20038;-79
2023/06/12 08:03:24;;;;;;;9.10;4.72;;;22.20;76.30;;;;;;5009550;28;20083;-79
2023/06/12 08:05:53;;;;;;;10.52;4.95;;;22.20;76.30;;;;;;4999101;28;20137;-79
2023/06/12 08:08:20;;;;;;;11.27;5.03;;;22.00;76.10;;;;;;5019799;28;20029;-80
2023/06/12 08:10:45;;;;;;;8.68;5.30;;;22.00;75.80;;;;;;5019414;28;20038;-80
2023/06/12 08:13:11;;;;;;;7.30;5.05;;;21.90;75.30;;;;;;4988231;28;20124;-79
2023/06/12 08:15:37;;;;;;;11.10;5.00;;;22.20;74.80;;;;;;4978990;28;20050;-79
2023/06/12 08:18:02;;;;;;;8.52;4.75;;;22.40;74.70;;;;;;5006668;28;20405;-80
2023/06/12 08:20:30;;;;;;;8.85;4.80;;;22.70;74.70;;;;;;5022443;28;20037;-79
2023/06/12 08:22:56;;;;;;;9.05;4.90;;;22.90;74.40;;;;;;5021342;28;20441;-80
2023/06/12 08:25:22;;;;;;;8.68;4.90;;;23.20;74.10;;;;;;5019938;28;20041;-79
2023/06/12 08:27:48;;;;;;;7.97;5.00;;;23.60;73.70;;;;;;5016991;28;20103;-79
2023/06/12 08:30:14;;;;;;;11.52;5.15;;;24.00;72.90;;;;;;4994062;28;20042;-80
2023/06/12 08:32:40;;;;;;;7.93;5.03;;;24.30;71.80;;;;;;5011020;28;20062;-81
2023/06/12 08:35:06;;;;;;;9.73;5.50;;;24.60;71.00;;;;;;5011755;28;20068;-80
2023/06/12 08:37:33;;;;;;;13.73;5.53;;;24.90;70.40;;;;;;5012935;28;20037;-80
2023/06/12 08:39:59;;;;;;;11.00;5.88;;;25.30;69.60;;;;;;5005467;28;20054;-80
2023/06/12 08:42:25;;;;;;;6.82;4.88;;;25.60;69.20;;;;;;5007417;28;20124;-81
2023/06/12 08:45:01;;;;;;;9.15;5.22;;;25.80;68.70;;;;;;5022900;28;20481;-80
2023/06/12 08:47:32;;;;;;;7.15;5.07;;;26.00;67.40;;;;;;5023086;28;20120;-80
2023/06/12 08:49:58;;;;;;;10.82;5.28;;;26.10;67.40;;;;;;5054969;23;20042;-79
2023/06/12 08:52:24;;;;;;;6.93;5.15;;;26.40;67.40;;;;;;5046327;28;20120;-79
2023/06/12 08:54:51;;;;;;;8.75;5.13;;;26.60;67.20;;;;;;5049999;28;20041;-79
2023/06/12 08:57:19;;;;;;;11.25;5.38;;;27.00;67.10;;;;;;5039591;28;20033;-79
2023/06/12 08:59:44;;;;;;;9.35;5.25;;;27.10;66.30;;;;;;5042638;28;20041;-79
2023/06/12 09:02:11;;;;;;;7.15;5.38;;;27.40;66.40;;;;;;5033908;28;20437;-79
2023/06/12 09:04:44;;;;;;;10.05;5.25;;;27.60;66.10;;;;;;5036087;28;20305;-79
2023/06/12 09:07:12;;;;;;;8.60;5.20;;;27.90;65.40;;;;;;5030758;28;20045;-79
2023/06/12 09:09:39;;;;;;;9.48;5.40;;;27.90;64.00;;;;;;5031076;28;20237;-79
2023/06/12 09:12:08;;;;;;;7.47;5.45;;;28.00;64.20;;;;;;5041832;28;20544;-79
2023/06/12 09:14:35;;;;;;;10.45;5.75;;;28.20;64.20;;;;;;5040295;28;20041;-79
2023/06/12 09:17:02;;;;;;;8.57;5.22;;;28.40;64.10;;;;;;5030880;28;20041;-79
2023/06/12 09:19:42;;;;;;;10.52;4.85;;;28.50;63.40;;;;;;5029865;28;20524;-79
2023/06/12 09:22:08;;;;;;;11.68;5.93;;;28.70;62.30;;;;;;5037297;28;20037;-79
2023/06/12 09:24:33;;;;;;;9.25;5.38;;;28.90;62.90;;;;;;5014230;28;20495;-79
2023/06/12 09:27:02;;;;;;;10.23;5.53;;;29.00;62.20;;;;;;5031846;28;20038;-79
2023/06/12 09:29:33;;;;;;;11.88;5.38;;;29.10;62.20;;;;;;5037176;28;20037;-80
2023/06/12 09:32:00;;;;;;;8.68;5.10;;;29.20;61.30;;;;;;5029854;28;20440;-80
2023/06/12 09:34:25;;;;;;;8.45;5.32;;;29.30;60.90;;;;;;5030772;28;20042;-80
2023/06/12 09:36:52;;;;;;;8.80;5.60;;;29.40;60.00;;;;;;5045079;28;20111;-80
2023/06/12 09:39:28;;;;;;;9.43;5.63;;;29.60;59.30;;;;;;5014486;28;20037;-79
2023/06/12 09:41:56;;;;;;;10.02;6.07;;;29.60;57.70;;;;;;5038596;28;20037;-79
2023/06/12 09:44:23;;;;;;;9.27;5.63;;;29.70;58.30;;;;;;5030562;28;20113;-80
2023/06/12 09:46:50;;;;;;;7.03;5.72;;;29.80;57.00;;;;;;5014263;28;20367;-80
2023/06/12 09:49:22;;;;;;;12.02;5.95;;;29.70;57.50;;;;;;5030177;28;20499;-80
2023/06/12 09:51:49;;;;;;;10.40;6.43;;;29.80;57.30;;;;;;5037156;28;20490;-80
2023/06/12 09:54:19;;;;;;;8.85;5.53;;;29.90;57.20;;;;;;5035365;28;20045;-79
2023/06/12 09:56:46;;;;;;;12.43;5.97;;;30.10;56.10;;;;;;5032625;28;20413;-80
2023/06/12 09:59:18;;;;;;;8.45;6.25;;;30.20;56.50;;;;;;5042510;28;20065;-80
2023/06/12 10:01:51;;;;;;;6.70;5.97;;;30.40;56.40;;;;;;5036242;28;20386;-80
2023/06/12 10:04:51;;;;;;;8.30;6.20;;;30.60;55.40;;;;;;5041092;28;20112;-80
2023/06/12 10:07:41;;;;;;;11.00;6.20;;;30.70;54.60;;;;;;5023752;28;20543;-80
2023/06/12 10:10:08;;;;;;;8.07;6.47;;;30.70;55.00;;;;;;5039711;28;20049;-80
2023/06/12 10:12:36;;;;;;;7.97;6.38;;;30.70;52.60;;;;;;5034349;28;20037;-80
2023/06/12 10:15:03;;;;;;;8.55;6.40;;;30.60;52.50;;;;;;5030063;28;20046;-80
2023/06/12 10:17:33;;;;;;;12.27;6.82;;;30.60;52.60;;;;;;5034386;28;20044;-80
2023/06/12 10:20:01;;;;;;;10.30;6.30;;;30.70;52.50;;;;;;5025331;28;20190;-80
2023/06/12 10:22:26;;;;;;;7.18;5.93;;;30.70;52.30;;;;;;5028355;28;20481;-80
2023/06/12 10:24:52;;;;;;;7.20;5.95;;;30.90;51.70;;;;;;5031914;28;20049;-80
2023/06/12 10:27:18;;;;;;;7.53;6.53;;;31.00;51.10;;;;;;5017076;28;20513;-80
2023/06/12 10:29:53;;;;;;;7.82;5.82;;;30.90;50.70;;;;;;5013475;28;20497;-80
2023/06/12 10:32:20;;;;;;;11.55;6.53;;;31.10;50.90;;;;;;5031675;28;20512;-80
2023/06/12 10:34:48;;;;;;;9.10;6.35;;;31.30;50.00;;;;;;5023128;28;20050;-80
2023/06/12 10:37:19;;;;;;;6.70;5.80;;;31.40;49.90;;;;;;5032389;28;20099;-80
2023/06/12 10:39:47;;;;;;;6.57;5.25;;;31.60;49.20;;;;;;5029894;28;20489;-80
2023/06/12 10:42:12;;;;;;;8.80;5.68;;;31.70;48.60;;;;;;5036078;28;20120;-80
2023/06/12 10:44:41;;;;;;;6.40;5.20;;;31.80;48.30;;;;;;5040414;28;20064;-80
2023/06/12 10:47:18;;;;;;;7.85;5.80;;;32.00;48.30;;;;;;5021842;28;20068;-80
2023/06/12 10:49:56;;;;;;;7.68;5.80;;;32.20;47.50;;;;;;5031752;28;20087;-80
2023/06/12 10:52:22;;;;;;;7.35;6.30;;;32.20;47.00;;;;;;5029645;28;20091;-80
2023/06/12 10:55:08;;;;;;;7.28;5.40;;;32.10;46.20;;;;;;5037731;28;20073;-80
2023/06/12 10:57:35;;;;;;;6.53;5.85;;;31.90;46.40;;;;;;5008914;28;20037;-80
2023/06/12 11:00:02;;;;;;;6.40;5.70;;;31.90;46.70;;;;;;5026654;28;20033;-80
2023/06/12 11:02:28;;;;;;;6.45;5.72;;;32.00;46.10;;;;;;5026626;28;20037;-80
2023/06/12 11:04:54;;;;;;;8.23;6.18;;;32.10;46.00;;;;;;5024965;28;20536;-80
2023/06/12 11:07:20;;;;;;;7.47;6.03;;;32.20;46.10;;;;;;5008479;28;20514;-80
2023/06/12 11:09:46;;;;;;;7.70;6.18;;;32.30;45.90;;;;;;5036022;28;20088;-80
2023/06/12 11:12:11;;;;;;;8.45;6.22;;;32.30;45.50;;;;;;5026974;28;20046;-80
2023/06/12 11:14:37;;;;;;;8.13;5.95;;;32.30;45.70;;;;;;5027132;28;20045;-81
2023/06/12 11:17:02;;;;;;;6.50;5.90;;;32.30;45.70;;;;;;5029142;28;20171;-80
2023/06/12 11:19:28;;;;;;;6.90;6.20;;;32.50;45.50;;;;;;5025899;28;20080;-80
2023/06/12 11:21:55;;;;;;;7.90;6.30;;;32.60;45.50;;;;;;5025728;28;20041;-79
2023/06/12 11:24:22;;;;;;;8.30;6.47;;;32.60;44.90;;;;;;5029320;28;20492;-79
2023/06/12 11:26:51;;;;;;;8.88;7.10;;;32.60;44.90;;;;;;5035951;28;20041;-79
2023/06/12 11:29:18;;;;;;;7.63;6.50;;;32.30;44.70;;;;;;5035494;28;20561;-80
2023/06/12 11:32:01;;;;;;;7.25;6.57;;;32.10;44.90;;;;;;5046803;28;20041;-79
2023/06/12 11:34:36;;;;;;;8.38;6.80;;;32.00;44.80;;;;;;5039077;28;20037;-80
2023/06/12 11:37:25;;;;;;;9.35;7.50;;;32.00;44.80;;;;;;5032895;28;20107;-80
2023/06/12 11:40:26;;;;;;;8.15;6.95;;;32.20;44.70;;;;;;5032533;28;20497;-80
2023/06/12 11:42:55;;;;;;;7.80;6.72;;;32.30;42.60;;;;;;4984144;28;20125;-79
2023/06/12 11:45:20;;;;;;;7.45;6.75;;;32.30;43.10;;;;;;5030895;28;20061;-79
2023/06/12 11:47:46;;;;;;;7.57;6.88;;;32.30;43.40;;;;;;5016380;28;20476;-79
2023/06/12 11:50:15;;;;;;;8.55;6.80;;;32.40;43.30;;;;;;5034687;28;20101;-80
2023/06/12 11:52:42;;;;;;;9.38;7.03;;;32.50;42.50;;;;;;5034338;28;20041;-80
2023/06/12 11:55:10;;;;;;;7.63;6.90;;;32.50;42.40;;;;;;5015868;28;20120;-80
2023/06/12 11:57:36;;;;;;;8.18;7.15;;;32.50;42.10;;;;;;5033302;28;20041;-80
2023/06/12 12:00:15;;;;;;;8.88;6.40;;;32.50;42.20;;;;;;5015351;28;20042;-80
2023/06/12 12:02:43;;;;;;;8.32;6.95;;;32.70;42.60;;;;;;5034700;28;20041;-78
2023/06/12 12:05:16;;;;;;;9.88;7.28;;;32.90;42.90;;;;;;5042322;28;20120;-78
2023/06/12 12:07:45;;;;;;;9.43;6.35;;;33.00;42.80;;;;;;5035681;28;20116;-78
2023/06/12 12:10:14;;;;;;;7.22;6.53;;;33.00;41.60;;;;;;5033089;28;20045;-78
2023/06/12 12:12:46;;;;;;;10.40;6.63;;;33.00;41.80;;;;;;5033233;28;20312;-78
2023/06/12 12:15:13;;;;;;;7.47;6.50;;;33.10;41.80;;;;;;5028795;28;20041;-78
2023/06/12 12:17:41;;;;;;;6.90;6.28;;;33.00;41.80;;;;;;5033103;28;20052;-78
2023/06/12 12:20:18;;;;;;;6.63;5.57;;;33.00;41.50;;;;;;5042198;28;20115;-78
2023/06/12 12:22:54;;;;;;;7.35;6.10;;;33.00;41.50;;;;;;5039674;28;20072;-78
2023/06/12 12:25:26;;;;;;;7.22;5.30;;;32.90;41.30;;;;;;5038260;28;20052;-78
2023/06/12 12:27:53;;;;;;;7.53;5.93;;;32.70;41.30;;;;;;5035892;28;20045;-78
2023/06/12 12:30:21;;;;;;;6.38;5.55;;;32.50;41.70;;;;;;5032149;28;20449;-78
2023/06/12 12:32:52;;;;;;;9.52;5.60;;;32.40;42.30;;;;;;5034764;28;20072;-78
2023/06/12 12:35:18;;;;;;;5.93;5.10;;;32.20;41.90;;;;;;5031688;28;20128;-78
2023/06/12 12:37:45;;;;;;;6.28;5.65;;;32.10;41.60;;;;;;5034820;28;20404;-78
2023/06/12 12:40:13;;;;;;;9.48;5.63;;;32.20;42.40;;;;;;5030989;28;20041;-77
2023/06/12 12:42:40;;;;;;;6.78;5.07;;;32.20;42.10;;;;;;5029610;28;20046;-78
2023/06/12 12:45:08;;;;;;;7.80;5.13;;;32.30;42.30;;;;;;5031470;28;20373;-78
2023/06/12 12:47:34;;;;;;;8.82;6.00;;;32.50;42.50;;;;;;5040641;28;20044;-78
2023/06/12 12:50:01;;;;;;;8.25;5.45;;;32.70;42.10;;;;;;5032165;28;20045;-78
2023/06/12 12:52:27;;;;;;;6.05;5.20;;;32.80;42.20;;;;;;5031523;28;20029;-78